sensor_id;sensor_type;location;lat;lon;timestamp;P1;durP1;ratioP1;P2;durP2;ratioP2
6757;SDS011;3416;53.074;8.822;2023-03-01T00:01:08;14.95;;;9.52;;
6757;SDS011;3416;53.074;8.822;2023-03-01T00:03:40;12.63;;;9.65;;
6757;SDS011;3416;53.074;8.822;2023-03-01T00:06:08;18.02;;;10.20;;
6757;SDS011;3416;53.074;8.822;2023-03-01T00:08:36;16.80;;;9.40;;
6757;SDS011;3416;53.074;8.822;2023-03-01T00:11:10;12.50;;;10.70;;
6757;SDS011;3416;53.074;8.822;2023-03-01T00:13:40;12.52;;;8.85;;
6757;SDS011;3416;53.074;8.822;2023-03-01T00:16:27;14.45;;;10.05;;
6757;SDS011;3416;53.074;8.822;2023-03-01T00:19:10;16.17;;;9.88;;
6757;SDS011;3416;53.074;8.822;2023-03-01T00:21:38;16.95;;;10.75;;
6757;SDS011;3416;53.074;8.822;2023-03-01T00:24:07;15.32;;;9.77;;
6757;SDS011;3416;53.074;8.822;2023-03-01T00:26:35;14.75;;;10.20;;
6757;SDS011;3416;53.074;8.822;2023-03-01T00:29:03;16.90;;;10.52;;
6757;SDS011;3416;53.074;8.822;2023-03-01T00:31:32;18.75;;;11.65;;
6757;SDS011;3416;53.074;8.822;2023-03-01T00:34:01;16.50;;;12.00;;
6757;SDS011;3416;53.074;8.822;2023-03-01T00:36:30;14.23;;;11.30;;
6757;SDS011;3416;53.074;8.822;2023-03-01T00:38:58;16.92;;;10.63;;
6757;SDS011;3416;53.074;8.822;2023-03-01T00:41:25;14.60;;;10.32;;
6757;SDS011;3416;53.074;8.822;2023-03-01T00:46:40;11.15;;;9.05;;
6757;SDS011;3416;53.074;8.822;2023-03-01T00:49:09;16.02;;;9.98;;
6757;SDS011;3416;53.074;8.822;2023-03-01T00:51:36;17.05;;;10.95;;
6757;SDS011;3416;53.074;8.822;2023-03-01T00:54:07;11.90;;;8.85;;
6757;SDS011;3416;53.074;8.822;2023-03-01T00:56:35;14.07;;;10.40;;
6757;SDS011;3416;53.074;8.822;2023-03-01T00:59:03;15.25;;;10.75;;
6757;SDS011;3416;53.074;8.822;2023-03-01T01:01:30;13.75;;;10.63;;
6757;SDS011;3416;53.074;8.822;2023-03-01T01:04:00;15.43;;;11.50;;
6757;SDS011;3416;53.074;8.822;2023-03-01T01:06:30;11.88;;;9.48;;
6757;SDS011;3416;53.074;8.822;2023-03-01T01:09:02;15.25;;;9.90;;
6757;SDS011;3416;53.074;8.822;2023-03-01T01:11:30;12.88;;;10.38;;
6757;SDS011;3416;53.074;8.822;2023-03-01T01:14:07;14.60;;;9.35;;
6757;SDS011;3416;53.074;8.822;2023-03-01T01:16:34;11.65;;;9.55;;
6757;SDS011;3416;53.074;8.822;2023-03-01T01:19:02;14.77;;;10.48;;
6757;SDS011;3416;53.074;8.822;2023-03-01T01:21:29;17.05;;;10.20;;
6757;SDS011;3416;53.074;8.822;2023-03-01T01:23:57;13.57;;;10.43;;
6757;SDS011;3416;53.074;8.822;2023-03-01T01:26:25;13.80;;;10.05;;
6757;SDS011;3416;53.074;8.822;2023-03-01T01:28:53;14.70;;;9.25;;
6757;SDS011;3416;53.074;8.822;2023-03-01T01:31:21;10.25;;;8.93;;
6757;SDS011;3416;53.074;8.822;2023-03-01T01:33:49;14.23;;;9.20;;
6757;SDS011;3416;53.074;8.822;2023-03-01T01:36:18;16.65;;;9.15;;
6757;SDS011;3416;53.074;8.822;2023-03-01T01:38:46;12.00;;;9.77;;
6757;SDS011;3416;53.074;8.822;2023-03-01T01:41:13;15.80;;;9.95;;
6757;SDS011;3416;53.074;8.822;2023-03-01T01:43:42;14.65;;;10.75;;
6757;SDS011;3416;53.074;8.822;2023-03-01T01:46:13;16.02;;;9.20;;
6757;SDS011;3416;53.074;8.822;2023-03-01T01:48:49;11.40;;;9.73;;
6757;SDS011;3416;53.074;8.822;2023-03-01T01:51:23;15.02;;;10.13;;
6757;SDS011;3416;53.074;8.822;2023-03-01T01:53:55;11.52;;;10.27;;
6757;SDS011;3416;53.074;8.822;2023-03-01T01:56:28;14.18;;;10.85;;
6757;SDS011;3416;53.074;8.822;2023-03-01T01:58:56;12.43;;;10.80;;
6757;SDS011;3416;53.074;8.822;2023-03-01T02:01:24;13.80;;;10.05;;
6757;SDS011;3416;53.074;8.822;2023-03-01T02:03:51;13.65;;;9.30;;
6757;SDS011;3416;53.074;8.822;2023-03-01T02:06:19;14.75;;;9.30;;
6757;SDS011;3416;53.074;8.822;2023-03-01T02:08:53;14.15;;;9.77;;
6757;SDS011;3416;53.074;8.822;2023-03-01T02:11:24;14.30;;;10.18;;
6757;SDS011;3416;53.074;8.822;2023-03-01T02:13:52;14.77;;;10.63;;
6757;SDS011;3416;53.074;8.822;2023-03-01T02:16:20;14.15;;;10.63;;
6757;SDS011;3416;53.074;8.822;2023-03-01T02:18:47;14.88;;;10.90;;
6757;SDS011;3416;53.074;8.822;2023-03-01T02:21:19;12.35;;;9.63;;
6757;SDS011;3416;53.074;8.822;2023-03-01T02:23:59;14.55;;;9.82;;
6757;SDS011;3416;53.074;8.822;2023-03-01T02:26:39;15.70;;;11.95;;
6757;SDS011;3416;53.074;8.822;2023-03-01T02:29:12;14.75;;;10.30;;
6757;SDS011;3416;53.074;8.822;2023-03-01T02:31:39;14.43;;;9.95;;
6757;SDS011;3416;53.074;8.822;2023-03-01T02:34:12;21.00;;;12.38;;
6757;SDS011;3416;53.074;8.822;2023-03-01T02:36:42;24.13;;;12.48;;
6757;SDS011;3416;53.074;8.822;2023-03-01T02:39:14;15.35;;;11.27;;
6757;SDS011;3416;53.074;8.822;2023-03-01T02:41:46;15.35;;;12.25;;
6757;SDS011;3416;53.074;8.822;2023-03-01T02:44:17;16.60;;;10.50;;
6757;SDS011;3416;53.074;8.822;2023-03-01T02:46:45;14.45;;;9.70;;
6757;SDS011;3416;53.074;8.822;2023-03-01T02:49:19;14.70;;;10.23;;
6757;SDS011;3416;53.074;8.822;2023-03-01T02:51:52;16.23;;;12.07;;
6757;SDS011;3416;53.074;8.822;2023-03-01T02:54:40;16.30;;;12.10;;
6757;SDS011;3416;53.074;8.822;2023-03-01T02:57:30;16.95;;;11.65;;
6757;SDS011;3416;53.074;8.822;2023-03-01T03:00:01;16.17;;;13.40;;
6757;SDS011;3416;53.074;8.822;2023-03-01T03:02:32;16.05;;;10.77;;
6757;SDS011;3416;53.074;8.822;2023-03-01T03:05:04;17.08;;;12.30;;
6757;SDS011;3416;53.074;8.822;2023-03-01T03:07:33;17.25;;;12.40;;
6757;SDS011;3416;53.074;8.822;2023-03-01T03:10:03;15.82;;;12.20;;
6757;SDS011;3416;53.074;8.822;2023-03-01T03:12:32;24.67;;;14.60;;
6757;SDS011;3416;53.074;8.822;2023-03-01T03:15:00;13.90;;;12.20;;
6757;SDS011;3416;53.074;8.822;2023-03-01T03:17:33;17.95;;;13.52;;
6757;SDS011;3416;53.074;8.822;2023-03-01T03:20:01;19.30;;;14.52;;
6757;SDS011;3416;53.074;8.822;2023-03-01T03:22:29;23.63;;;13.57;;
6757;SDS011;3416;53.074;8.822;2023-03-01T03:24:56;18.33;;;12.20;;
6757;SDS011;3416;53.074;8.822;2023-03-01T03:27:23;20.45;;;12.55;;
6757;SDS011;3416;53.074;8.822;2023-03-01T03:29:50;19.17;;;14.18;;
6757;SDS011;3416;53.074;8.822;2023-03-01T03:32:18;16.33;;;12.88;;
6757;SDS011;3416;53.074;8.822;2023-03-01T03:34:45;20.75;;;13.73;;
6757;SDS011;3416;53.074;8.822;2023-03-01T03:37:15;14.77;;;11.82;;
6757;SDS011;3416;53.074;8.822;2023-03-01T03:39:57;17.83;;;13.05;;
6757;SDS011;3416;53.074;8.822;2023-03-01T03:42:25;21.52;;;13.25;;
6757;SDS011;3416;53.074;8.822;2023-03-01T03:45:00;20.60;;;13.70;;
6757;SDS011;3416;53.074;8.822;2023-03-01T03:47:29;17.52;;;13.43;;
6757;SDS011;3416;53.074;8.822;2023-03-01T03:52:47;21.15;;;14.90;;
6757;SDS011;3416;53.074;8.822;2023-03-01T03:55:15;16.25;;;12.18;;
6757;SDS011;3416;53.074;8.822;2023-03-01T03:57:44;20.38;;;13.02;;
6757;SDS011;3416;53.074;8.822;2023-03-01T04:00:17;17.77;;;13.40;;
6757;SDS011;3416;53.074;8.822;2023-03-01T04:02:47;19.98;;;13.68;;
6757;SDS011;3416;53.074;8.822;2023-03-01T04:05:14;26.20;;;15.98;;
6757;SDS011;3416;53.074;8.822;2023-03-01T04:07:43;23.30;;;15.30;;
6757;SDS011;3416;53.074;8.822;2023-03-01T04:10:12;23.40;;;13.60;;
6757;SDS011;3416;53.074;8.822;2023-03-01T04:12:40;16.30;;;12.63;;
6757;SDS011;3416;53.074;8.822;2023-03-01T04:15:08;17.88;;;13.00;;
6757;SDS011;3416;53.074;8.822;2023-03-01T04:17:38;22.02;;;14.25;;
6757;SDS011;3416;53.074;8.822;2023-03-01T04:20:08;23.83;;;15.57;;
6757;SDS011;3416;53.074;8.822;2023-03-01T04:22:56;21.75;;;12.88;;
6757;SDS011;3416;53.074;8.822;2023-03-01T04:25:25;19.60;;;12.85;;
6757;SDS011;3416;53.074;8.822;2023-03-01T04:27:52;27.83;;;13.68;;
6757;SDS011;3416;53.074;8.822;2023-03-01T04:30:19;18.23;;;13.13;;
6757;SDS011;3416;53.074;8.822;2023-03-01T04:32:52;17.85;;;13.55;;
6757;SDS011;3416;53.074;8.822;2023-03-01T04:35:21;19.38;;;13.60;;
6757;SDS011;3416;53.074;8.822;2023-03-01T04:37:48;27.83;;;14.55;;
6757;SDS011;3416;53.074;8.822;2023-03-01T04:40:16;16.85;;;13.52;;
6757;SDS011;3416;53.074;8.822;2023-03-01T04:42:43;13.18;;;11.73;;
6757;SDS011;3416;53.074;8.822;2023-03-01T04:45:10;19.23;;;13.70;;
6757;SDS011;3416;53.074;8.822;2023-03-01T04:47:40;18.15;;;12.40;;
6757;SDS011;3416;53.074;8.822;2023-03-01T04:50:10;19.35;;;12.85;;
6757;SDS011;3416;53.074;8.822;2023-03-01T04:52:40;18.27;;;12.40;;
6757;SDS011;3416;53.074;8.822;2023-03-01T04:55:07;20.67;;;14.50;;
6757;SDS011;3416;53.074;8.822;2023-03-01T04:57:35;19.20;;;12.90;;
6757;SDS011;3416;53.074;8.822;2023-03-01T05:00:02;24.08;;;14.00;;
6757;SDS011;3416;53.074;8.822;2023-03-01T05:02:45;17.15;;;12.10;;
6757;SDS011;3416;53.074;8.822;2023-03-01T05:05:19;18.85;;;13.70;;
6757;SDS011;3416;53.074;8.822;2023-03-01T05:07:52;27.65;;;14.48;;
6757;SDS011;3416;53.074;8.822;2023-03-01T05:10:20;23.23;;;15.75;;
6757;SDS011;3416;53.074;8.822;2023-03-01T05:12:53;22.00;;;14.50;;
6757;SDS011;3416;53.074;8.822;2023-03-01T05:15:22;23.40;;;13.23;;
6757;SDS011;3416;53.074;8.822;2023-03-01T05:17:50;22.73;;;14.25;;
6757;SDS011;3416;53.074;8.822;2023-03-01T05:20:18;20.33;;;14.52;;
6757;SDS011;3416;53.074;8.822;2023-03-01T05:22:48;20.20;;;13.90;;
6757;SDS011;3416;53.074;8.822;2023-03-01T05:25:16;20.83;;;15.05;;
6757;SDS011;3416;53.074;8.822;2023-03-01T05:27:43;21.63;;;15.30;;
6757;SDS011;3416;53.074;8.822;2023-03-01T05:30:13;18.52;;;13.20;;
6757;SDS011;3416;53.074;8.822;2023-03-01T05:32:42;21.58;;;14.65;;
6757;SDS011;3416;53.074;8.822;2023-03-01T05:35:18;18.17;;;14.20;;
6757;SDS011;3416;53.074;8.822;2023-03-01T05:37:46;19.65;;;14.63;;
6757;SDS011;3416;53.074;8.822;2023-03-01T05:40:17;28.00;;;14.88;;
6757;SDS011;3416;53.074;8.822;2023-03-01T05:42:46;22.13;;;14.68;;
6757;SDS011;3416;53.074;8.822;2023-03-01T05:45:14;24.27;;;13.68;;
6757;SDS011;3416;53.074;8.822;2023-03-01T05:47:42;23.10;;;14.73;;
6757;SDS011;3416;53.074;8.822;2023-03-01T05:50:11;17.02;;;13.38;;
6757;SDS011;3416;53.074;8.822;2023-03-01T05:52:43;18.48;;;14.02;;
6757;SDS011;3416;53.074;8.822;2023-03-01T05:55:13;21.85;;;14.93;;
6757;SDS011;3416;53.074;8.822;2023-03-01T05:57:41;20.35;;;15.15;;
6757;SDS011;3416;53.074;8.822;2023-03-01T06:00:09;20.13;;;14.75;;
6757;SDS011;3416;53.074;8.822;2023-03-01T06:02:37;19.60;;;15.05;;
6757;SDS011;3416;53.074;8.822;2023-03-01T06:05:06;17.67;;;13.98;;
6757;SDS011;3416;53.074;8.822;2023-03-01T06:07:35;20.40;;;14.75;;
6757;SDS011;3416;53.074;8.822;2023-03-01T06:10:03;17.88;;;14.00;;
6757;SDS011;3416;53.074;8.822;2023-03-01T06:12:31;20.33;;;15.98;;
6757;SDS011;3416;53.074;8.822;2023-03-01T06:15:00;19.67;;;15.75;;
6757;SDS011;3416;53.074;8.822;2023-03-01T06:17:28;24.70;;;15.68;;
6757;SDS011;3416;53.074;8.822;2023-03-01T06:19:56;22.88;;;16.15;;
6757;SDS011;3416;53.074;8.822;2023-03-01T06:22:23;22.92;;;17.33;;
6757;SDS011;3416;53.074;8.822;2023-03-01T06:24:50;20.80;;;13.77;;
6757;SDS011;3416;53.074;8.822;2023-03-01T06:27:17;19.50;;;14.60;;
6757;SDS011;3416;53.074;8.822;2023-03-01T06:29:44;23.05;;;16.48;;
6757;SDS011;3416;53.074;8.822;2023-03-01T06:32:13;20.33;;;14.52;;
6757;SDS011;3416;53.074;8.822;2023-03-01T06:34:40;21.52;;;15.02;;
6757;SDS011;3416;53.074;8.822;2023-03-01T06:37:07;22.98;;;15.55;;
6757;SDS011;3416;53.074;8.822;2023-03-01T06:39:34;26.42;;;15.60;;
6757;SDS011;3416;53.074;8.822;2023-03-01T06:42:01;21.80;;;15.55;;
6757;SDS011;3416;53.074;8.822;2023-03-01T06:44:28;19.38;;;14.57;;
6757;SDS011;3416;53.074;8.822;2023-03-01T06:46:56;25.30;;;16.20;;
6757;SDS011;3416;53.074;8.822;2023-03-01T06:49:24;19.92;;;14.20;;
6757;SDS011;3416;53.074;8.822;2023-03-01T06:51:51;26.30;;;16.17;;
6757;SDS011;3416;53.074;8.822;2023-03-01T06:54:19;22.17;;;15.80;;
6757;SDS011;3416;53.074;8.822;2023-03-01T06:56:47;24.40;;;14.60;;
6757;SDS011;3416;53.074;8.822;2023-03-01T06:59:15;23.77;;;15.25;;
6757;SDS011;3416;53.074;8.822;2023-03-01T07:01:43;23.52;;;15.20;;
6757;SDS011;3416;53.074;8.822;2023-03-01T07:04:10;24.83;;;15.30;;
6757;SDS011;3416;53.074;8.822;2023-03-01T07:06:38;25.08;;;15.80;;
6757;SDS011;3416;53.074;8.822;2023-03-01T07:09:05;36.42;;;17.70;;
6757;SDS011;3416;53.074;8.822;2023-03-01T07:11:32;26.60;;;15.27;;
6757;SDS011;3416;53.074;8.822;2023-03-01T07:14:01;22.92;;;14.75;;
6757;SDS011;3416;53.074;8.822;2023-03-01T07:16:28;24.20;;;15.88;;
6757;SDS011;3416;53.074;8.822;2023-03-01T07:18:56;21.90;;;15.00;;
6757;SDS011;3416;53.074;8.822;2023-03-01T07:21:23;20.25;;;14.57;;
6757;SDS011;3416;53.074;8.822;2023-03-01T07:23:51;22.02;;;14.23;;
6757;SDS011;3416;53.074;8.822;2023-03-01T07:26:18;16.58;;;12.65;;
6757;SDS011;3416;53.074;8.822;2023-03-01T07:28:45;16.08;;;12.73;;
6757;SDS011;3416;53.074;8.822;2023-03-01T07:31:12;24.38;;;14.00;;
6757;SDS011;3416;53.074;8.822;2023-03-01T07:33:41;18.05;;;13.25;;
6757;SDS011;3416;53.074;8.822;2023-03-01T07:36:08;18.23;;;14.20;;
6757;SDS011;3416;53.074;8.822;2023-03-01T07:38:36;19.35;;;14.77;;
6757;SDS011;3416;53.074;8.822;2023-03-01T07:41:04;16.35;;;12.25;;
6757;SDS011;3416;53.074;8.822;2023-03-01T07:43:33;16.83;;;10.80;;
6757;SDS011;3416;53.074;8.822;2023-03-01T07:46:00;21.50;;;13.90;;
6757;SDS011;3416;53.074;8.822;2023-03-01T07:48:34;23.35;;;15.57;;
6757;SDS011;3416;53.074;8.822;2023-03-01T07:51:02;22.45;;;14.25;;
6757;SDS011;3416;53.074;8.822;2023-03-01T07:53:31;22.38;;;15.23;;
6757;SDS011;3416;53.074;8.822;2023-03-01T07:56:04;19.42;;;11.68;;
6757;SDS011;3416;53.074;8.822;2023-03-01T07:58:34;22.67;;;13.88;;
6757;SDS011;3416;53.074;8.822;2023-03-01T08:01:02;17.02;;;12.98;;
6757;SDS011;3416;53.074;8.822;2023-03-01T08:03:36;20.83;;;13.50;;
6757;SDS011;3416;53.074;8.822;2023-03-01T08:06:05;17.73;;;13.75;;
6757;SDS011;3416;53.074;8.822;2023-03-01T08:08:33;15.30;;;13.27;;
6757;SDS011;3416;53.074;8.822;2023-03-01T08:11:02;18.77;;;14.90;;
6757;SDS011;3416;53.074;8.822;2023-03-01T08:13:31;20.48;;;14.10;;
6757;SDS011;3416;53.074;8.822;2023-03-01T08:16:00;18.02;;;12.65;;
6757;SDS011;3416;53.074;8.822;2023-03-01T08:18:28;16.27;;;12.07;;
6757;SDS011;3416;53.074;8.822;2023-03-01T08:21:01;24.52;;;14.15;;
6757;SDS011;3416;53.074;8.822;2023-03-01T08:23:29;16.63;;;11.95;;
6757;SDS011;3416;53.074;8.822;2023-03-01T08:26:04;15.30;;;12.68;;
6757;SDS011;3416;53.074;8.822;2023-03-01T08:28:32;17.98;;;12.05;;
6757;SDS011;3416;53.074;8.822;2023-03-01T08:31:00;17.92;;;12.68;;
6757;SDS011;3416;53.074;8.822;2023-03-01T08:33:28;19.13;;;13.25;;
6757;SDS011;3416;53.074;8.822;2023-03-01T08:36:01;23.25;;;15.93;;
6757;SDS011;3416;53.074;8.822;2023-03-01T08:38:29;20.52;;;14.82;;
6757;SDS011;3416;53.074;8.822;2023-03-01T08:40:59;24.65;;;13.52;;
6757;SDS011;3416;53.074;8.822;2023-03-01T08:43:28;16.30;;;13.20;;
6757;SDS011;3416;53.074;8.822;2023-03-01T08:45:56;19.17;;;13.48;;
6757;SDS011;3416;53.074;8.822;2023-03-01T08:48:23;15.13;;;12.65;;
6757;SDS011;3416;53.074;8.822;2023-03-01T08:50:52;16.10;;;13.32;;
6757;SDS011;3416;53.074;8.822;2023-03-01T08:53:18;15.57;;;11.73;;
6757;SDS011;3416;53.074;8.822;2023-03-01T08:55:56;16.65;;;13.00;;
6757;SDS011;3416;53.074;8.822;2023-03-01T08:58:31;17.83;;;12.93;;
6757;SDS011;3416;53.074;8.822;2023-03-01T09:00:58;15.60;;;13.25;;
6757;SDS011;3416;53.074;8.822;2023-03-01T09:03:25;15.98;;;13.07;;
6757;SDS011;3416;53.074;8.822;2023-03-01T09:05:53;18.10;;;13.23;;
6757;SDS011;3416;53.074;8.822;2023-03-01T09:08:26;18.58;;;11.77;;
6757;SDS011;3416;53.074;8.822;2023-03-01T09:10:52;16.13;;;12.50;;
6757;SDS011;3416;53.074;8.822;2023-03-01T09:13:31;19.73;;;11.82;;
6757;SDS011;3416;53.074;8.822;2023-03-01T09:15:58;12.82;;;8.35;;
6757;SDS011;3416;53.074;8.822;2023-03-01T09:18:27;57.67;;;28.15;;
6757;SDS011;3416;53.074;8.822;2023-03-01T09:21:00;13.47;;;8.30;;
6757;SDS011;3416;53.074;8.822;2023-03-01T09:23:32;15.73;;;9.77;;
6757;SDS011;3416;53.074;8.822;2023-03-01T09:25:59;29.10;;;13.67;;
6757;SDS011;3416;53.074;8.822;2023-03-01T09:28:26;12.40;;;9.37;;
6757;SDS011;3416;53.074;8.822;2023-03-01T09:30:58;30.73;;;16.23;;
6757;SDS011;3416;53.074;8.822;2023-03-01T09:33:26;33.13;;;17.73;;
6757;SDS011;3416;53.074;8.822;2023-03-01T09:35:56;18.57;;;11.43;;
6757;SDS011;3416;53.074;8.822;2023-03-01T09:38:23;20.93;;;12.43;;
6757;SDS011;3416;53.074;8.822;2023-03-01T09:40:51;12.80;;;9.10;;
6757;SDS011;3416;53.074;8.822;2023-03-01T09:43:20;14.37;;;7.60;;
6757;SDS011;3416;53.074;8.822;2023-03-01T09:45:52;14.37;;;10.03;;
6757;SDS011;3416;53.074;8.822;2023-03-01T09:48:23;14.97;;;10.27;;
6757;SDS011;3416;53.074;8.822;2023-03-01T09:50:55;18.83;;;8.97;;
6757;SDS011;3416;53.074;8.822;2023-03-01T09:53:24;15.93;;;9.47;;
6757;SDS011;3416;53.074;8.822;2023-03-01T09:55:59;11.37;;;9.23;;
6757;SDS011;3416;53.074;8.822;2023-03-01T09:58:33;9.80;;;6.30;;
6757;SDS011;3416;53.074;8.822;2023-03-01T10:01:10;6.40;;;4.73;;
6757;SDS011;3416;53.074;8.822;2023-03-01T10:07:00;8.00;;;6.00;;
6757;SDS011;3416;53.074;8.822;2023-03-01T10:09:33;7.13;;;4.93;;
6757;SDS011;3416;53.074;8.822;2023-03-01T10:12:02;9.13;;;4.77;;
6757;SDS011;3416;53.074;8.822;2023-03-01T10:14:35;7.63;;;4.20;;
6757;SDS011;3416;53.074;8.822;2023-03-01T10:17:05;9.13;;;5.60;;
6757;SDS011;3416;53.074;8.822;2023-03-01T10:19:41;4.93;;;3.30;;
6757;SDS011;3416;53.074;8.822;2023-03-01T10:22:11;8.87;;;5.30;;
6757;SDS011;3416;53.074;8.822;2023-03-01T10:24:42;6.37;;;4.77;;
6757;SDS011;3416;53.074;8.822;2023-03-01T10:27:12;7.32;;;4.90;;
6757;SDS011;3416;53.074;8.822;2023-03-01T10:29:46;9.45;;;3.95;;
6757;SDS011;3416;53.074;8.822;2023-03-01T10:32:20;6.20;;;4.47;;
6757;SDS011;3416;53.074;8.822;2023-03-01T10:34:48;5.80;;;4.85;;
6757;SDS011;3416;53.074;8.822;2023-03-01T10:37:18;7.40;;;5.70;;
6757;SDS011;3416;53.074;8.822;2023-03-01T10:39:57;6.60;;;5.60;;
6757;SDS011;3416;53.074;8.822;2023-03-01T10:42:31;9.63;;;6.10;;
6757;SDS011;3416;53.074;8.822;2023-03-01T10:45:14;9.93;;;6.25;;
6757;SDS011;3416;53.074;8.822;2023-03-01T10:47:43;10.60;;;7.25;;
6757;SDS011;3416;53.074;8.822;2023-03-01T10:50:19;11.15;;;6.18;;
6757;SDS011;3416;53.074;8.822;2023-03-01T10:52:55;9.75;;;6.97;;
6757;SDS011;3416;53.074;8.822;2023-03-01T10:55:24;8.75;;;6.15;;
6757;SDS011;3416;53.074;8.822;2023-03-01T10:58:06;11.45;;;7.70;;
6757;SDS011;3416;53.074;8.822;2023-03-01T11:00:45;10.55;;;7.57;;
6757;SDS011;3416;53.074;8.822;2023-03-01T11:03:14;11.13;;;8.40;;
6757;SDS011;3416;53.074;8.822;2023-03-01T11:05:55;8.98;;;8.02;;
6757;SDS011;3416;53.074;8.822;2023-03-01T11:08:40;15.23;;;9.63;;
6757;SDS011;3416;53.074;8.822;2023-03-01T11:11:18;10.73;;;8.13;;
6757;SDS011;3416;53.074;8.822;2023-03-01T11:13:52;11.65;;;8.80;;
6757;SDS011;3416;53.074;8.822;2023-03-01T11:16:25;19.52;;;8.88;;
6757;SDS011;3416;53.074;8.822;2023-03-01T11:19:00;13.35;;;10.05;;
6757;SDS011;3416;53.074;8.822;2023-03-01T11:21:42;11.43;;;9.50;;
6757;SDS011;3416;53.074;8.822;2023-03-01T11:24:16;14.05;;;8.70;;
6757;SDS011;3416;53.074;8.822;2023-03-01T11:26:47;10.38;;;9.27;;
6757;SDS011;3416;53.074;8.822;2023-03-01T11:29:21;11.52;;;10.18;;
6757;SDS011;3416;53.074;8.822;2023-03-01T11:31:54;12.23;;;9.90;;
6757;SDS011;3416;53.074;8.822;2023-03-01T11:34:29;11.43;;;9.38;;
6757;SDS011;3416;53.074;8.822;2023-03-01T11:37:09;12.82;;;11.07;;
6757;SDS011;3416;53.074;8.822;2023-03-01T11:39:51;17.88;;;10.73;;
6757;SDS011;3416;53.074;8.822;2023-03-01T11:42:28;11.18;;;9.38;;
6757;SDS011;3416;53.074;8.822;2023-03-01T11:45:06;14.95;;;10.25;;
6757;SDS011;3416;53.074;8.822;2023-03-01T11:50:42;13.10;;;10.43;;
6757;SDS011;3416;53.074;8.822;2023-03-01T11:53:22;12.98;;;10.48;;
6757;SDS011;3416;53.074;8.822;2023-03-01T11:56:05;11.85;;;10.35;;
6757;SDS011;3416;53.074;8.822;2023-03-01T12:01:54;11.73;;;9.73;;
6757;SDS011;3416;53.074;8.822;2023-03-01T12:07:36;16.55;;;11.23;;
6757;SDS011;3416;53.074;8.822;2023-03-01T12:10:22;11.05;;;9.85;;
6757;SDS011;3416;53.074;8.822;2023-03-01T12:13:08;12.07;;;10.88;;
6757;SDS011;3416;53.074;8.822;2023-03-01T12:15:58;11.45;;;10.20;;
6757;SDS011;3416;53.074;8.822;2023-03-01T12:18:38;12.23;;;9.93;;
6757;SDS011;3416;53.074;8.822;2023-03-01T12:21:26;16.25;;;11.15;;
6757;SDS011;3416;53.074;8.822;2023-03-01T12:24:11;17.13;;;10.98;;
6757;SDS011;3416;53.074;8.822;2023-03-01T12:27:03;11.45;;;10.30;;
6757;SDS011;3416;53.074;8.822;2023-03-01T12:29:39;12.18;;;9.45;;
6757;SDS011;3416;53.074;8.822;2023-03-01T12:35:03;11.68;;;9.10;;
6757;SDS011;3416;53.074;8.822;2023-03-01T12:37:43;20.13;;;10.20;;
6757;SDS011;3416;53.074;8.822;2023-03-01T12:43:30;10.65;;;9.05;;
6757;SDS011;3416;53.074;8.822;2023-03-01T12:46:09;24.77;;;10.43;;
6757;SDS011;3416;53.074;8.822;2023-03-01T12:48:47;13.75;;;9.77;;
6757;SDS011;3416;53.074;8.822;2023-03-01T12:51:26;14.93;;;11.80;;
6757;SDS011;3416;53.074;8.822;2023-03-01T12:53:57;12.43;;;9.65;;
6757;SDS011;3416;53.074;8.822;2023-03-01T12:56:28;12.38;;;10.48;;
6757;SDS011;3416;53.074;8.822;2023-03-01T12:59:01;12.23;;;9.70;;
6757;SDS011;3416;53.074;8.822;2023-03-01T13:01:38;13.85;;;10.82;;
6757;SDS011;3416;53.074;8.822;2023-03-01T13:04:21;12.38;;;10.68;;
6757;SDS011;3416;53.074;8.822;2023-03-01T13:06:58;15.98;;;11.07;;
6757;SDS011;3416;53.074;8.822;2023-03-01T13:09:38;13.68;;;9.98;;
6757;SDS011;3416;53.074;8.822;2023-03-01T13:15:33;11.60;;;10.25;;
6757;SDS011;3416;53.074;8.822;2023-03-01T13:18:03;13.27;;;10.20;;
6757;SDS011;3416;53.074;8.822;2023-03-01T13:20:51;14.13;;;10.32;;
6757;SDS011;3416;53.074;8.822;2023-03-01T13:23:28;11.45;;;9.95;;
6757;SDS011;3416;53.074;8.822;2023-03-01T13:26:01;11.65;;;8.98;;
6757;SDS011;3416;53.074;8.822;2023-03-01T13:34:46;12.20;;;8.48;;
6757;SDS011;3416;53.074;8.822;2023-03-01T13:37:27;11.85;;;10.05;;
6757;SDS011;3416;53.074;8.822;2023-03-01T13:39:57;12.55;;;9.68;;
6757;SDS011;3416;53.074;8.822;2023-03-01T13:42:40;11.13;;;9.45;;
6757;SDS011;3416;53.074;8.822;2023-03-01T13:45:24;14.77;;;9.88;;
6757;SDS011;3416;53.074;8.822;2023-03-01T13:48:02;13.07;;;10.25;;
6757;SDS011;3416;53.074;8.822;2023-03-01T13:50:38;12.07;;;9.20;;
6757;SDS011;3416;53.074;8.822;2023-03-01T13:53:14;11.45;;;9.80;;
6757;SDS011;3416;53.074;8.822;2023-03-01T13:55:44;11.80;;;10.20;;
6757;SDS011;3416;53.074;8.822;2023-03-01T13:58:19;11.95;;;9.50;;
6757;SDS011;3416;53.074;8.822;2023-03-01T14:00:55;12.10;;;10.23;;
6757;SDS011;3416;53.074;8.822;2023-03-01T14:03:23;11.18;;;9.50;;
6757;SDS011;3416;53.074;8.822;2023-03-01T14:05:58;10.35;;;9.23;;
6757;SDS011;3416;53.074;8.822;2023-03-01T14:08:29;12.13;;;10.02;;
6757;SDS011;3416;53.074;8.822;2023-03-01T14:17:09;11.98;;;9.90;;
6757;SDS011;3416;53.074;8.822;2023-03-01T14:19:46;11.52;;;10.02;;
6757;SDS011;3416;53.074;8.822;2023-03-01T14:22:22;12.07;;;8.30;;
6757;SDS011;3416;53.074;8.822;2023-03-01T14:24:55;13.52;;;9.90;;
6757;SDS011;3416;53.074;8.822;2023-03-01T14:27:26;11.70;;;9.57;;
6757;SDS011;3416;53.074;8.822;2023-03-01T14:29:57;13.52;;;10.82;;
6757;SDS011;3416;53.074;8.822;2023-03-01T14:32:26;14.13;;;9.85;;
6757;SDS011;3416;53.074;8.822;2023-03-01T14:34:55;12.27;;;10.38;;
6757;SDS011;3416;53.074;8.822;2023-03-01T14:37:26;16.70;;;11.35;;
6757;SDS011;3416;53.074;8.822;2023-03-01T14:39:55;18.02;;;11.45;;
6757;SDS011;3416;53.074;8.822;2023-03-01T14:42:23;11.35;;;9.52;;
6757;SDS011;3416;53.074;8.822;2023-03-01T14:44:54;12.52;;;11.23;;
6757;SDS011;3416;53.074;8.822;2023-03-01T14:47:25;13.60;;;11.00;;
6757;SDS011;3416;53.074;8.822;2023-03-01T14:49:56;12.80;;;10.18;;
6757;SDS011;3416;53.074;8.822;2023-03-01T14:52:28;13.55;;;11.13;;
6757;SDS011;3416;53.074;8.822;2023-03-01T14:55:01;14.10;;;11.10;;
6757;SDS011;3416;53.074;8.822;2023-03-01T14:57:31;16.27;;;12.02;;
6757;SDS011;3416;53.074;8.822;2023-03-01T14:59:58;20.63;;;13.48;;
6757;SDS011;3416;53.074;8.822;2023-03-01T15:02:30;13.52;;;10.35;;
6757;SDS011;3416;53.074;8.822;2023-03-01T15:04:58;14.25;;;11.65;;
6757;SDS011;3416;53.074;8.822;2023-03-01T15:07:31;16.95;;;11.60;;
6757;SDS011;3416;53.074;8.822;2023-03-01T15:10:00;15.55;;;11.85;;
6757;SDS011;3416;53.074;8.822;2023-03-01T15:12:35;18.33;;;10.77;;
6757;SDS011;3416;53.074;8.822;2023-03-01T15:15:30;19.05;;;10.88;;
6757;SDS011;3416;53.074;8.822;2023-03-01T15:18:01;12.48;;;10.10;;
6757;SDS011;3416;53.074;8.822;2023-03-01T15:20:31;14.20;;;11.30;;
6757;SDS011;3416;53.074;8.822;2023-03-01T15:23:03;14.70;;;11.25;;
6757;SDS011;3416;53.074;8.822;2023-03-01T15:25:31;16.63;;;12.35;;
6757;SDS011;3416;53.074;8.822;2023-03-01T15:28:00;15.45;;;12.02;;
6757;SDS011;3416;53.074;8.822;2023-03-01T15:30:29;14.10;;;12.10;;
6757;SDS011;3416;53.074;8.822;2023-03-01T15:33:18;15.32;;;12.70;;
6757;SDS011;3416;53.074;8.822;2023-03-01T15:35:55;15.77;;;12.68;;
6757;SDS011;3416;53.074;8.822;2023-03-01T15:38:27;18.38;;;13.18;;
6757;SDS011;3416;53.074;8.822;2023-03-01T15:41:01;16.73;;;13.40;;
6757;SDS011;3416;53.074;8.822;2023-03-01T15:43:37;21.30;;;13.48;;
6757;SDS011;3416;53.074;8.822;2023-03-01T15:46:19;16.95;;;14.10;;
6757;SDS011;3416;53.074;8.822;2023-03-01T15:48:53;19.77;;;14.07;;
6757;SDS011;3416;53.074;8.822;2023-03-01T15:51:27;17.85;;;13.18;;
6757;SDS011;3416;53.074;8.822;2023-03-01T15:53:58;16.70;;;12.80;;
6757;SDS011;3416;53.074;8.822;2023-03-01T15:56:26;17.88;;;13.00;;
6757;SDS011;3416;53.074;8.822;2023-03-01T15:58:57;18.00;;;14.38;;